Time;durP1;ratioP1;P1;durP2;ratioP2;P2;SDS_P1;SDS_P2;PMS_P1;PMS_P2;Temp;Humidity;BMP_temperature;BMP_pressure;BME280_temperature;BME280_humidity;BME280_pressure;Samples;Min_cycle;Max_cycle;Signal;HPM_P1;HPM_P2
2021/07/26 00:01:01;;;;;;;24.70;15.65;;;;;;;19.37;76.63;101319.34;1834897;77;21534;-73
2021/07/26 00:03:28;;;;;;;23.65;14.05;;;;;;;19.34;76.69;101322.27;1834648;77;20878;-73
2021/07/26 00:05:56;;;;;;;26.48;15.65;;;;;;;19.31;76.90;101320.35;1835174;77;20914;-73
2021/07/26 00:08:22;;;;;;;23.85;15.18;;;;;;;19.27;76.98;101326.41;1834783;78;21396;-74
2021/07/26 00:11:03;;;;;;;25.25;14.45;;;;;;;19.25;77.12;101323.03;1834813;76;20919;-75
2021/07/26 00:13:30;;;;;;;21.68;14.90;;;;;;;19.22;77.14;101318.83;1834798;77;21538;-74
2021/07/26 00:15:57;;;;;;;23.15;14.13;;;;;;;19.23;77.14;101328.50;1835182;78;21357;-75
2021/07/26 00:18:27;;;;;;;18.62;13.78;;;;;;;19.22;77.08;101323.31;1834761;78;20942;-75
2021/07/26 00:20:56;;;;;;;25.60;15.15;;;;;;;19.20;77.13;101322.10;1835110;77;20875;-76
2021/07/26 00:23:25;;;;;;;22.07;14.80;;;;;;;19.19;77.04;101318.27;1835730;77;21325;-75
2021/07/26 00:25:51;;;;;;;27.00;15.58;;;;;;;19.18;77.03;101324.05;1835444;77;21483;-75
2021/07/26 00:28:19;;;;;;;21.30;14.25;;;;;;;19.17;77.14;101322.38;1834899;77;20926;-75
2021/07/26 00:30:46;;;;;;;22.05;14.10;;;;;;;19.17;77.09;101321.54;1835003;77;20827;-74
2021/07/26 00:34:00;;;;;;;21.25;13.72;;;;;;;19.16;77.07;101318.02;1834801;76;21403;-75
2021/07/26 00:36:24;;;;;;;22.93;14.10;;;;;;;19.17;76.93;101321.54;1820731;77;20866;-75
2021/07/26 00:38:51;;;;;;;22.10;14.53;;;;;;;19.17;76.95;101318.38;1849243;77;21985;-76
2021/07/26 00:41:18;;;;;;;23.98;13.80;;;;;;;19.17;77.10;101321.54;1849147;76;20900;-75
2021/07/26 00:43:48;;;;;;;18.55;13.53;;;;;;;19.15;77.27;101319.49;1849206;77;20917;-75
2021/07/26 00:46:15;;;;;;;20.70;16.00;;;;;;;19.13;77.22;101322.27;1849288;77;21462;-74
2021/07/26 00:48:43;;;;;;;21.73;13.95;;;;;;;19.11;77.16;101321.56;1849337;77;20885;-74
2021/07/26 00:51:11;;;;;;;18.85;13.98;;;;;;;19.09;77.27;101316.02;1849289;76;21097;-75
2021/07/26 00:53:39;;;;;;;21.95;14.73;;;;;;;19.05;77.41;101320.28;1849135;77;21372;-73
2021/07/26 00:56:07;;;;;;;22.45;13.90;;;;;;;19.04;77.44;101325.72;1849172;76;20877;-76
2021/07/26 00:58:34;;;;;;;20.30;13.45;;;;;;;19.01;77.38;101324.16;1849178;76;21343;-75
2021/07/26 01:01:01;;;;;;;25.88;15.35;;;;;;;19.00;77.34;101324.28;1851400;77;20881;-76
2021/07/26 01:03:28;;;;;;;21.10;13.65;;;;;;;18.97;77.36;101320.08;1849318;76;21075;-78
2021/07/26 01:05:55;;;;;;;20.02;13.20;;;;;;;18.95;77.18;101319.36;1849344;77;21378;-76
2021/07/26 01:08:22;;;;;;;19.67;12.58;;;;;;;18.92;77.27;101320.95;1849388;77;20960;-76
2021/07/26 01:10:48;;;;;;;17.67;12.75;;;;;;;18.90;77.37;101325.56;1849351;77;20972;-74
2021/07/26 01:13:15;;;;;;;17.10;13.78;;;;;;;18.86;77.57;101326.78;1849210;76;20877;-75
2021/07/26 01:15:42;;;;;;;16.82;13.88;;;;;;;18.80;77.76;101320.16;1849069;77;21483;-75
2021/07/26 01:18:26;;;;;;;16.80;13.70;;;;;;;18.82;77.95;101329.33;1849118;77;20964;-76
2021/07/26 01:20:59;;;;;;;18.95;12.40;;;;;;;18.80;77.88;101324.63;1849415;77;20866;-74
2021/07/26 01:23:28;;;;;;;18.62;12.05;;;;;;;18.78;77.84;101327.41;1849260;76;20952;-74
2021/07/26 01:25:55;;;;;;;20.80;13.18;;;;;;;18.77;77.72;101321.75;1849491;77;20905;-73
2021/07/26 01:28:25;;;;;;;18.42;12.75;;;;;;;18.77;77.84;101325.73;1849187;77;21556;-73
2021/07/26 01:30:51;;;;;;;19.17;12.98;;;;;;;18.76;77.92;101325.82;1849450;77;20866;-72
2021/07/26 01:33:18;;;;;;;15.80;11.88;;;;;;;18.73;77.93;101330.08;1849300;77;20858;-72
2021/07/26 01:35:47;;;;;;;19.95;12.95;;;;;;;18.70;77.94;101337.82;1843488;77;21341;-74
2021/07/26 01:38:13;;;;;;;20.57;12.13;;;;;;;18.67;77.98;101335.89;1835166;77;20831;-74
2021/07/26 01:40:41;;;;;;;16.55;12.35;;;;;;;18.62;78.15;101338.44;1837665;77;21429;-74
2021/07/26 01:43:10;;;;;;;18.85;11.68;;;;;;;18.58;78.30;101340.98;1836460;77;20847;-74
2021/07/26 01:45:38;;;;;;;22.50;12.58;;;;;;;18.54;78.31;101334.72;1835704;77;20855;-72
2021/07/26 01:48:26;;;;;;;21.20;11.73;;;;;;;18.50;78.28;101334.61;1834677;76;20938;-73
2021/07/26 01:50:59;;;;;;;19.87;12.10;;;;;;;18.45;78.27;101344.28;1834793;77;20907;-73
2021/07/26 01:53:26;;;;;;;21.77;12.00;;;;;;;18.41;78.27;101341.55;1834953;77;21528;-73
2021/07/26 01:55:54;;;;;;;23.62;12.90;;;;;;;18.35;78.33;101336.73;1834740;77;21436;-74
2021/07/26 01:58:21;;;;;;;15.43;11.10;;;;;;;18.32;78.33;101341.81;1834356;78;20950;-73
2021/07/26 02:00:49;;;;;;;15.78;12.15;;;;;;;18.27;78.20;101347.95;1834772;77;21071;-73
2021/07/26 02:03:16;;;;;;;18.62;11.15;;;;;;;18.22;78.24;101350.16;1834900;76;20930;-74
2021/07/26 02:05:44;;;;;;;19.73;11.38;;;;;;;18.16;78.37;101354.16;1834655;77;21528;-74
2021/07/26 02:08:10;;;;;;;21.23;12.28;;;;;;;18.14;78.57;101353.89;1834680;77;20859;-73
2021/07/26 02:10:37;;;;;;;20.95;12.33;;;;;;;18.14;78.71;101361.86;1835063;77;20907;-74
2021/07/26 02:13:04;;;;;;;14.18;10.88;;;;;;;18.14;78.82;101358.75;1834630;77;20863;-74
2021/07/26 02:15:31;;;;;;;19.37;11.73;;;;;;;18.15;78.87;101364.89;1835015;76;20911;-73
2021/07/26 02:17:58;;;;;;;15.38;11.43;;;;;;;18.16;78.66;101364.78;1834877;77;21115;-74
2021/07/26 02:20:24;;;;;;;14.73;11.48;;;;;;;18.18;78.50;101364.63;1834766;77;20902;-74
2021/07/26 02:22:51;;;;;;;14.00;10.80;;;;;;;18.19;78.59;101361.03;1834707;77;20911;-73
2021/07/26 02:25:19;;;;;;;18.50;10.78;;;;;;;18.21;79.01;101369.23;1834733;77;20938;-73
2021/07/26 02:27:46;;;;;;;21.75;10.68;;;;;;;18.21;79.01;101369.23;1835000;77;21004;-73
2021/07/26 02:30:13;;;;;;;16.90;11.22;;;;;;;18.22;79.06;101373.55;1834747;77;21475;-73
2021/07/26 02:32:40;;;;;;;16.82;10.32;;;;;;;18.22;79.08;101364.75;1834977;77;20851;-73
2021/07/26 02:35:08;;;;;;;13.32;10.60;;;;;;;18.24;79.10;101368.13;1834616;77;20886;-73
2021/07/26 02:37:35;;;;;;;15.23;9.80;;;;;;;18.23;79.15;101367.78;1834716;76;20926;-73
2021/07/26 02:40:06;;;;;;;27.70;10.95;;;;;;;18.22;79.02;101371.39;1834803;76;20864;-74
2021/07/26 02:42:33;;;;;;;13.80;10.10;;;;;;;18.21;78.80;101372.37;1834811;77;21765;-74
2021/07/26 02:45:00;;;;;;;18.23;10.48;;;;;;;18.21;78.71;101377.69;1834566;77;20938;-73
2021/07/26 02:47:27;;;;;;;14.80;10.82;;;;;;;18.20;78.57;101375.98;1834719;77;20863;-74
2021/07/26 02:49:54;;;;;;;28.95;10.50;;;;;;;18.21;78.54;101375.03;1835391;77;20840;-74
2021/07/26 02:52:21;;;;;;;14.53;9.60;;;;;;;18.21;78.63;101377.19;1835697;77;21016;-74
2021/07/26 02:54:48;;;;;;;14.03;9.68;;;;;;;18.21;78.56;101378.52;1834601;77;21124;-73
2021/07/26 02:57:15;;;;;;;17.73;10.30;;;;;;;18.22;78.65;101384.66;1834875;77;20850;-73
2021/07/26 02:59:42;;;;;;;11.95;8.60;;;;;;;18.21;78.83;101384.31;1834821;77;21408;-73
2021/07/26 03:02:09;;;;;;;14.18;9.20;;;;;;;18.21;78.83;101380.34;1834796;77;20985;-73
2021/07/26 03:04:36;;;;;;;15.55;9.43;;;;;;;18.22;78.74;101382.84;1834832;77;20867;-73
2021/07/26 03:07:04;;;;;;;23.20;10.10;;;;;;;18.25;78.79;101387.55;1834839;77;21117;-74
2021/07/26 03:09:31;;;;;;;18.00;9.03;;;;;;;18.27;78.62;101396.24;1834858;77;20907;-73
2021/07/26 03:11:59;;;;;;;12.45;9.00;;;;;;;18.30;78.52;101394.20;1834914;76;20977;-74
2021/07/26 03:14:26;;;;;;;13.25;8.55;;;;;;;18.33;78.28;101388.63;1834810;77;20922;-74
2021/07/26 03:16:53;;;;;;;12.85;8.78;;;;;;;18.37;78.23;101388.75;1834421;77;21428;-73
2021/07/26 03:19:20;;;;;;;16.80;9.33;;;;;;;18.43;78.17;101388.26;1835132;76;21114;-72
2021/07/26 03:22:30;;;;;;;16.20;8.88;;;;;;;18.50;78.05;101390.39;1834870;77;20851;-73
2021/07/26 03:24:58;;;;;;;11.18;8.63;;;;;;;18.58;77.99;101387.97;1832741;77;20867;-73
2021/07/26 03:27:25;;;;;;;15.70;8.65;;;;;;;18.68;77.67;101388.08;1834876;77;20933;-72
2021/07/26 03:29:52;;;;;;;12.75;8.55;;;;;;;18.75;77.53;101387.92;1835117;76;21423;-73
2021/07/26 03:32:19;;;;;;;15.30;9.08;;;;;;;18.81;77.25;101387.45;1834778;78;21114;-73
2021/07/26 03:34:46;;;;;;;16.07;9.60;;;;;;;18.88;77.18;101383.31;1835031;77;21406;-72
2021/07/26 03:37:13;;;;;;;19.67;11.78;;;;;;;18.96;76.98;101390.14;1834774;75;20929;-74
2021/07/26 03:39:40;;;;;;;21.87;9.68;;;;;;;19.03;76.84;101389.14;1834798;77;20906;-73
2021/07/26 03:42:07;;;;;;;22.73;10.50;;;;;;;19.11;76.73;101388.52;1834868;77;20871;-73
2021/07/26 03:44:34;;;;;;;27.20;9.90;;;;;;;19.18;76.56;101392.34;1834795;77;21126;-73
2021/07/26 03:47:03;;;;;;;21.05;9.28;;;;;;;19.24;76.53;101395.33;1834865;77;20969;-73
2021/07/26 03:49:30;;;;;;;17.30;10.25;;;;;;;19.31;76.53;101392.99;1835157;77;20984;-72
2021/07/26 03:51:57;;;;;;;17.50;9.35;;;;;;;19.40;76.57;101398.86;1834698;76;20847;-74
2021/07/26 03:54:25;;;;;;;17.42;9.80;;;;;;;19.48;76.56;101398.72;1834889;77;20946;-74
2021/07/26 03:56:57;;;;;;;16.48;9.93;;;;;;;19.55;76.34;101398.05;1834850;77;21952;-73
2021/07/26 03:59:25;;;;;;;34.38;11.80;;;;;;;19.63;76.12;101395.58;1834812;76;20824;-73
2021/07/26 04:01:55;;;;;;;22.20;10.63;;;;;;;19.74;75.90;101403.14;1834812;77;20860;-74
2021/07/26 04:04:23;;;;;;;14.83;10.43;;;;;;;19.83;75.75;101405.88;1834889;76;20918;-73
2021/07/26 04:06:56;;;;;;;22.37;12.95;;;;;;;19.93;75.73;101398.41;1834957;77;20961;-73
2021/07/26 04:09:22;;;;;;;24.25;12.20;;;;;;;20.01;75.61;101395.89;1835249;77;21111;-72
2021/07/26 04:11:58;;;;;;;19.70;12.13;;;;;;;20.09;75.55;101400.91;1834979;77;20989;-72
2021/07/26 04:14:21;;;;;;;17.75;11.80;;;;;;;20.18;75.56;101395.26;1833839;76;20867;-72
2021/07/26 04:16:47;;;;;;;25.37;12.65;;;;;;;20.27;75.45;101397.10;1834668;78;20875;-74
2021/07/26 04:19:14;;;;;;;23.20;11.30;;;;;;;20.36;75.64;101389.28;1835162;77;20890;-73
2021/07/26 04:21:41;;;;;;;25.70;10.90;;;;;;;20.45;75.37;101387.98;1834992;77;21796;-73
2021/07/26 04:24:08;;;;;;;18.98;11.33;;;;;;;20.58;73.51;101390.90;1835177;77;20894;-73
2021/07/26 04:26:35;;;;;;;29.15;11.48;;;;;;;20.84;73.48;101388.54;1834784;78;20879;-74
2021/07/26 04:29:02;;;;;;;32.30;12.58;;;;;;;21.27;73.29;101392.06;1834711;76;20914;-73
2021/07/26 04:31:29;;;;;;;32.05;12.45;;;;;;;21.79;72.54;101392.17;1835168;77;20875;-74
2021/07/26 04:33:56;;;;;;;30.12;12.93;;;;;;;22.38;70.13;101391.43;1834813;77;21114;-74
2021/07/26 04:36:22;;;;;;;23.75;12.88;;;;;;;22.94;63.98;101389.83;1841994;77;20915;-73
2021/07/26 04:38:49;;;;;;;29.42;11.48;;;;;;;23.51;60.32;101396.11;1860084;77;20863;-74
2021/07/26 04:41:16;;;;;;;21.17;11.93;;;;;;;24.03;56.80;101395.23;1860028;77;20907;-75
2021/07/26 04:43:43;;;;;;;22.17;11.15;;;;;;;24.50;55.45;101388.53;1859907;77;20974;-73
2021/07/26 04:46:10;;;;;;;21.73;10.48;;;;;;;24.98;54.79;101396.31;1860330;77;21099;-72
2021/07/26 04:48:37;;;;;;;16.97;8.48;;;;;;;25.44;51.52;101400.67;1859976;77;20848;-71
2021/07/26 04:51:04;;;;;;;17.10;8.38;;;;;;;25.81;49.47;101390.67;1860260;76;20950;-72
2021/07/26 04:53:36;;;;;;;14.78;7.75;;;;;;;26.17;49.33;101392.91;1860027;77;20915;-72
2021/07/26 04:56:03;;;;;;;13.75;7.67;;;;;;;26.54;48.42;101390.50;1860138;77;21476;-72
2021/07/26 04:58:30;;;;;;;15.50;7.97;;;;;;;26.91;46.97;101387.58;1859874;77;21915;-71
2021/07/26 05:00:57;;;;;;;22.13;7.00;;;;;;;27.24;44.70;101389.50;1860181;77;20864;-72
2021/07/26 05:03:28;;;;;;;16.45;7.55;;;;;;;27.56;45.30;101391.52;1860215;77;20863;-72
2021/07/26 05:05:55;;;;;;;15.20;6.42;;;;;;;27.89;43.64;101382.06;1859849;77;21388;-71
2021/07/26 05:08:22;;;;;;;11.03;6.67;;;;;;;28.20;41.29;101385.03;1860054;77;20915;-70
2021/07/26 05:10:49;;;;;;;14.83;7.03;;;;;;;28.45;41.81;101388.20;1860271;77;21413;-70
2021/07/26 05:13:22;;;;;;;15.13;6.72;;;;;;;28.75;40.89;101377.34;1859900;77;21429;-72
2021/07/26 05:15:53;;;;;;;14.38;6.95;;;;;;;29.08;40.55;101380.36;1858509;77;21004;-72
2021/07/26 05:18:20;;;;;;;24.92;8.65;;;;;;;29.46;40.72;101384.55;1859987;77;20883;-71
2021/07/26 05:20:50;;;;;;;17.48;7.50;;;;;;;29.82;38.27;101384.38;1859902;77;20824;-72
2021/07/26 05:23:17;;;;;;;17.65;6.95;;;;;;;30.12;39.24;101383.55;1859820;77;21149;-73
2021/07/26 05:25:45;;;;;;;20.90;6.92;;;;;;;30.40;37.68;101385.34;1860254;76;20915;-73
2021/07/26 05:28:13;;;;;;;15.15;6.08;;;;;;;30.57;36.50;101381.22;1860144;77;20848;-73
2021/07/26 05:30:40;;;;;;;19.52;9.28;;;;;;;30.78;37.04;101382.07;1859823;76;21013;-73
2021/07/26 05:33:07;;;;;;;15.15;6.60;;;;;;;31.05;35.77;101381.58;1860017;77;21851;-73
2021/07/26 05:35:34;;;;;;;15.95;6.50;;;;;;;31.27;35.91;101382.19;1859789;77;21116;-73
2021/07/26 05:38:04;;;;;;;18.17;6.97;;;;;;;31.47;34.68;101379.47;1858916;77;20978;-73
2021/07/26 05:40:36;;;;;;;20.72;7.80;;;;;;;31.68;34.49;101379.70;1859907;76;20957;-71
2021/07/26 05:43:00;;;;;;;28.30;9.30;;;;;;;31.92;34.45;101384.95;1858256;76;20950;-81
2021/07/26 05:45:29;;;;;;;23.10;10.70;;;;;;;32.14;34.12;101376.54;1860413;76;20867;-83
2021/07/26 05:47:56;;;;;;;19.82;10.08;;;;;;;32.37;32.61;101374.62;1860178;77;21039;-79
2021/07/26 05:50:24;;;;;;;17.95;10.50;;;;;;;32.58;33.92;101380.27;1860170;77;20879;-83
2021/07/26 05:52:51;;;;;;;18.90;9.30;;;;;;;32.79;32.99;101378.56;1859944;76;20923;-77
2021/07/26 05:55:20;;;;;;;26.35;8.35;;;;;;;32.92;31.86;101371.33;1860035;77;20934;-78
2021/07/26 05:57:50;;;;;;;16.55;7.55;;;;;;;33.04;31.00;101370.39;1859247;76;21337;-77
2021/07/26 06:00:24;;;;;;;28.83;10.30;;;;;;;33.16;32.42;101366.97;1859916;76;21150;-79
2021/07/26 06:02:50;;;;;;;23.77;8.73;;;;;;;33.39;33.30;101370.38;1858860;76;21395;-79
2021/07/26 06:05:17;;;;;;;26.27;12.88;;;;;;;33.69;31.86;101371.86;1860193;77;20840;-78
2021/07/26 06:07:45;;;;;;;21.40;10.48;;;;;;;33.94;30.84;101368.20;1859962;77;20954;-85
2021/07/26 06:10:14;;;;;;;31.27;14.10;;;;;;;34.15;31.01;101366.39;1857807;77;20954;-79
2021/07/26 06:12:41;;;;;;;28.95;13.25;;;;;;;34.25;29.32;101365.82;1860024;76;21075;-78
2021/07/26 06:15:10;;;;;;;19.00;12.47;;;;;;;34.35;30.29;101362.02;1859870;76;21539;-75
2021/07/26 06:17:37;;;;;;;21.87;10.88;;;;;;;34.53;30.13;101361.11;1860184;77;20867;-77
2021/07/26 06:20:07;;;;;;;23.92;9.50;;;;;;;34.78;29.76;101364.20;1861485;76;20949;-79
2021/07/26 06:22:34;;;;;;;13.05;8.60;;;;;;;34.96;28.27;101357.81;1860446;77;21079;-78
2021/07/26 06:25:01;;;;;;;16.90;9.73;;;;;;;34.99;28.49;101361.42;1859855;77;21124;-75
2021/07/26 06:27:28;;;;;;;18.77;8.23;;;;;;;35.03;27.95;101358.52;1859936;76;20863;-71
2021/07/26 06:29:55;;;;;;;18.80;8.73;;;;;;;35.15;28.53;101366.20;1860074;77;20998;-72
2021/07/26 06:32:21;;;;;;;14.95;9.40;;;;;;;35.37;29.29;101362.30;1860028;76;20958;-70
2021/07/26 06:34:48;;;;;;;18.95;7.75;;;;;;;35.59;28.86;101355.69;1860232;77;21325;-71
2021/07/26 06:37:15;;;;;;;11.28;6.95;;;;;;;35.76;28.15;101348.97;1856277;77;21520;-72
2021/07/26 06:39:42;;;;;;;13.75;5.62;;;;;;;35.90;28.38;101357.16;1849412;77;20902;-74
2021/07/26 06:42:08;;;;;;;22.05;7.97;;;;;;;36.02;27.96;101354.91;1849276;76;20858;-76
2021/07/26 06:44:37;;;;;;;16.67;6.45;;;;;;;36.21;27.67;101358.31;1849150;77;20905;-70
2021/07/26 06:47:04;;;;;;;12.85;6.33;;;;;;;36.35;27.18;101364.29;1849336;77;20948;-70
2021/07/26 06:52:13;;;;;;;21.45;10.82;;;;;;;36.77;27.05;101363.93;1794105;78;22183;-69
2021/07/26 06:54:40;;;;;;;16.45;8.23;;;;;;;36.89;27.12;101366.88;1761066;79;20875;-69
2021/07/26 06:57:07;;;;;;;14.03;7.37;;;;;;;37.00;26.71;101368.38;1765657;79;21444;-67
2021/07/26 06:59:34;;;;;;;11.48;5.90;;;;;;;37.13;26.60;101379.00;1774675;80;20911;-69
2021/07/26 07:02:02;;;;;;;14.75;7.08;;;;;;;37.16;25.49;101379.06;1782630;80;20914;-71
2021/07/26 07:04:29;;;;;;;12.33;6.25;;;;;;;37.16;25.58;101375.77;1786244;79;21030;-70
2021/07/26 07:06:57;;;;;;;11.57;5.90;;;;;;;37.26;26.46;101375.08;1788018;80;20985;-69
2021/07/26 07:09:26;;;;;;;8.70;6.15;;;;;;;37.43;26.92;101370.95;1760915;79;21525;-71
2021/07/26 07:11:52;;;;;;;11.48;5.85;;;;;;;37.62;27.13;101374.21;1770379;80;20931;-70
2021/07/26 07:14:21;;;;;;;12.73;5.83;;;;;;;37.72;26.48;101372.43;1767473;79;20863;-71
2021/07/26 07:16:49;;;;;;;14.33;6.35;;;;;;;37.91;26.45;101378.41;1793407;80;20896;-71
2021/07/26 07:19:16;;;;;;;6.28;5.45;;;;;;;38.04;26.49;101370.38;1784729;79;21033;-71
2021/07/26 07:21:45;;;;;;;10.28;6.17;;;;;;;38.17;26.10;101381.98;1762749;79;20899;-72
2021/07/26 07:24:14;;;;;;;14.53;5.97;;;;;;;38.24;25.86;101375.20;1760500;79;20970;-71
2021/07/26 07:26:47;;;;;;;10.08;5.70;;;;;;;38.31;24.50;101373.10;1770908;79;20990;-71
2021/07/26 07:29:16;;;;;;;10.32;5.90;;;;;;;38.34;24.50;101375.31;1793892;80;20868;-71
2021/07/26 07:31:43;;;;;;;20.40;5.90;;;;;;;38.35;24.76;101379.72;1794089;80;20880;-71
2021/07/26 07:34:11;;;;;;;11.25;5.60;;;;;;;38.37;25.17;101380.81;1793020;80;21502;-71
2021/07/26 07:36:41;;;;;;;9.78;6.47;;;;;;;38.42;25.21;101377.28;1771394;80;22250;-71
2021/07/26 07:39:09;;;;;;;11.03;6.87;;;;;;;38.55;25.50;101381.00;1788444;79;21029;-70
2021/07/26 07:41:36;;;;;;;15.08;8.60;;;;;;;38.71;25.14;101380.05;1791964;80;21549;-70
2021/07/26 07:44:04;;;;;;;15.75;7.72;;;;;;;38.81;24.54;101374.36;1780676;79;21016;-71
2021/07/26 07:46:31;;;;;;;16.77;7.10;;;;;;;38.84;24.37;101381.50;1786541;80;21971;-70
2021/07/26 07:48:59;;;;;;;13.90;6.47;;;;;;;38.84;24.05;101376.02;1789730;80;20975;-69
2021/07/26 07:51:26;;;;;;;14.40;6.05;;;;;;;38.85;23.52;101375.49;1775433;80;20911;-71
2021/07/26 07:53:55;;;;;;;9.38;5.53;;;;;;;38.89;24.65;101379.36;1783676;79;20887;-70
2021/07/26 07:56:22;;;;;;;10.23;5.60;;;;;;;38.95;24.81;101376.95;1784478;80;21381;-71
2021/07/26 07:58:51;;;;;;;11.12;5.37;;;;;;;38.99;23.33;101375.88;1782623;79;21800;-71
2021/07/26 08:01:18;;;;;;;17.75;7.47;;;;;;;38.99;24.71;101378.63;1760675;80;20982;-69
2021/07/26 08:03:45;;;;;;;12.63;7.70;;;;;;;39.11;24.13;101377.34;1788291;80;20936;-71
2021/07/26 08:06:12;;;;;;;8.95;5.37;;;;;;;39.23;24.59;101373.01;1764389;79;21428;-71
2021/07/26 08:08:41;;;;;;;10.43;6.03;;;;;;;39.33;23.86;101379.09;1776315;79;20998;-72
2021/07/26 08:11:08;;;;;;;10.23;5.70;;;;;;;39.37;23.47;101371.42;1765028;80;21146;-72
2021/07/26 08:13:37;;;;;;;11.18;6.70;;;;;;;39.42;23.06;101369.28;1776354;80;21487;-71
2021/07/26 08:16:05;;;;;;;9.85;6.22;;;;;;;39.37;23.72;101370.05;1760485;80;20978;-71
2021/07/26 08:18:32;;;;;;;13.93;8.15;;;;;;;39.43;23.32;101368.76;1769131;80;20907;-72
2021/07/26 08:20:59;;;;;;;18.62;10.85;;;;;;;39.54;23.08;101374.56;1791237;80;21109;-72
2021/07/26 08:23:28;;;;;;;36.05;11.18;;;;;;;39.62;22.52;101371.28;1783517;80;21179;-72
2021/07/26 08:25:55;;;;;;;13.22;7.25;;;;;;;39.66;21.99;101368.28;1770537;79;20967;-70
2021/07/26 08:28:22;;;;;;;13.93;7.08;;;;;;;39.70;22.77;101372.14;1767993;80;21051;-70
2021/07/26 08:30:49;;;;;;;8.60;5.33;;;;;;;39.71;22.95;101367.47;1750031;80;21074;-70
2021/07/26 08:33:16;;;;;;;8.70;5.50;;;;;;;39.74;22.94;101365.02;1776019;80;20968;-70
2021/07/26 08:35:42;;;;;;;9.60;5.62;;;;;;;39.83;22.89;101374.97;1752052;80;21453;-70
2021/07/26 08:38:10;;;;;;;11.43;5.47;;;;;;;39.99;23.11;101371.16;1772962;80;20920;-71
2021/07/26 08:40:36;;;;;;;13.18;5.72;;;;;;;40.12;22.92;101372.56;1773059;80;21718;-70
2021/07/26 08:43:05;;;;;;;9.90;4.55;;;;;;;40.15;20.99;101369.81;1766839;80;20893;-70
2021/07/26 08:45:32;;;;;;;11.22;4.72;;;;;;;40.05;21.21;101367.06;1771963;80;20853;-70
2021/07/26 08:48:06;;;;;;;6.90;4.53;;;;;;;40.02;22.52;101362.09;1746254;80;21398;-71
2021/07/26 08:50:34;;;;;;;6.83;3.75;;;;;;;40.06;22.22;101364.58;1772119;80;21576;-70
2021/07/26 08:53:03;;;;;;;19.35;4.70;;;;;;;40.09;22.96;101358.00;1762145;80;20947;-69
2021/07/26 08:55:32;;;;;;;8.90;4.87;;;;;;;40.12;22.92;101366.25;1746969;80;20900;-71
2021/07/26 08:57:59;;;;;;;7.45;3.65;;;;;;;40.11;22.43;101358.55;1775159;80;20908;-70
2021/07/26 09:00:26;;;;;;;6.08;3.70;;;;;;;40.16;21.94;101360.48;1775893;80;21131;-72
2021/07/26 09:02:53;;;;;;;9.98;3.92;;;;;;;40.08;20.82;101348.65;1759955;80;20919;-70
2021/07/26 09:05:21;;;;;;;6.83;4.05;;;;;;;39.97;20.64;101354.11;1753909;80;21374;-72
2021/07/26 09:07:49;;;;;;;4.78;3.87;;;;;;;39.89;21.48;101345.58;1766788;80;20932;-70
2021/07/26 09:10:23;;;;;;;13.60;4.30;;;;;;;39.86;21.19;101351.07;1743897;80;21035;-71
2021/07/26 09:12:52;;;;;;;5.05;3.42;;;;;;;39.89;22.32;101351.07;1773499;80;21794;-70
2021/07/26 09:15:35;;;;;;;4.95;3.45;;;;;;;39.90;22.29;101356.30;1758547;80;21478;-71
2021/07/26 09:18:05;;;;;;;8.18;7.47;;;;;;;39.94;21.81;101357.41;1746299;80;20972;-68
2021/07/26 09:20:34;;;;;;;6.62;3.85;;;;;;;39.87;19.70;101356.86;1766407;80;20944;-70
2021/07/26 09:23:17;;;;;;;7.92;4.05;;;;;;;39.64;19.17;101353.99;1772212;80;20912;-69
2021/07/26 09:25:45;;;;;;;3.50;3.15;;;;;;;39.40;19.36;101353.65;1770657;80;21135;-70
2021/07/26 09:28:20;;;;;;;4.20;3.35;;;;;;;39.14;19.98;101347.98;1744142;80;20849;-71
2021/07/26 09:30:55;;;;;;;5.05;3.67;;;;;;;39.01;20.33;101344.34;1762237;80;21007;-70
2021/07/26 09:33:32;;;;;;;7.22;2.92;;;;;;;39.01;21.47;101344.34;1757901;80;20980;-70
2021/07/26 09:36:08;;;;;;;10.00;3.40;;;;;;;39.15;21.88;101344.69;1763653;80;21378;-71
2021/07/26 09:38:36;;;;;;;6.12;3.60;;;;;;;39.29;21.54;101347.25;1756692;80;21573;-70
2021/07/26 09:41:05;;;;;;;5.40;3.52;;;;;;;39.38;20.18;101345.67;1744461;80;21406;-70
2021/07/26 09:43:32;;;;;;;3.75;3.10;;;;;;;39.41;21.19;101338.00;1758323;80;21524;-71
2021/07/26 09:45:59;;;;;;;7.67;3.90;;;;;;;39.44;21.33;101331.41;1766422;80;20936;-69
2021/07/26 09:48:30;;;;;;;5.78;3.37;;;;;;;39.53;20.71;101337.20;1764810;80;21370;-68
2021/07/26 09:51:03;;;;;;;3.87;3.52;;;;;;;39.54;19.11;101338.87;1772845;80;21147;-71
2021/07/26 09:53:30;;;;;;;7.05;3.85;;;;;;;39.34;20.10;101332.17;1744698;80;20908;-69
2021/07/26 09:55:59;;;;;;;9.43;3.30;;;;;;;39.26;21.31;101327.19;1744083;80;21465;-70
2021/07/26 09:58:40;;;;;;;6.83;3.17;;;;;;;39.33;20.94;101333.80;1753438;80;20900;-70
2021/07/26 10:01:09;;;;;;;4.08;3.30;;;;;;;39.39;21.28;101332.77;1768299;80;21040;-71
2021/07/26 10:03:39;;;;;;;8.13;3.40;;;;;;;39.43;20.64;101325.66;1739028;80;21085;-71
2021/07/26 10:06:10;;;;;;;6.33;3.33;;;;;;;39.55;21.19;101321.30;1747266;80;21046;-70
2021/07/26 10:08:37;;;;;;;7.25;3.27;;;;;;;39.67;21.43;101322.45;1744689;80;21045;-73
2021/07/26 10:11:04;;;;;;;4.80;3.27;;;;;;;39.74;20.87;101321.64;1767506;80;21496;-72
2021/07/26 10:13:31;;;;;;;6.30;2.85;;;;;;;39.72;20.37;101317.78;1767932;80;21052;-72
2021/07/26 10:15:58;;;;;;;6.25;2.70;;;;;;;39.67;19.99;101319.70;1754503;80;21512;-74
2021/07/26 10:18:26;;;;;;;4.12;3.58;;;;;;;39.59;20.06;101306.75;1744750;80;20924;-72
2021/07/26 10:21:06;;;;;;;10.63;5.05;;;;;;;39.57;20.07;101314.44;1738497;80;20986;-72
2021/07/26 10:23:39;;;;;;;6.60;4.40;;;;;;;39.53;20.93;101316.09;1743657;80;21040;-71
2021/07/26 10:26:10;;;;;;;7.37;3.98;;;;;;;39.49;20.10;101306.73;1760775;80;20944;-70
2021/07/26 10:28:40;;;;;;;7.05;3.27;;;;;;;39.50;20.41;101303.44;1744505;80;21131;-72
2021/07/26 10:31:34;;;;;;;4.08;2.92;;;;;;;39.47;20.16;101306.18;1766168;80;21513;-72
2021/07/26 10:34:08;;;;;;;8.05;3.20;;;;;;;39.49;19.28;101304.00;1760115;80;20932;-71
2021/07/26 10:36:44;;;;;;;2.85;2.65;;;;;;;39.46;20.76;101309.19;1762184;80;20907;-71
2021/07/26 10:39:19;;;;;;;6.78;4.00;;;;;;;39.48;20.23;101307.00;1758573;80;20940;-71
2021/07/26 10:41:56;;;;;;;8.13;3.98;;;;;;;39.53;18.86;101300.14;1747427;80;20873;-71
2021/07/26 10:44:29;;;;;;;7.83;3.92;;;;;;;39.45;18.46;101297.39;1766720;80;20924;-72
2021/07/26 10:47:06;;;;;;;8.40;4.58;;;;;;;39.34;19.42;101295.12;1770820;81;21007;-71
2021/07/26 10:50:03;;;;;;;5.42;3.25;;;;;;;39.31;19.51;101294.81;1757227;80;20876;-75
2021/07/26 10:52:31;;;;;;;3.52;2.87;;;;;;;39.27;18.84;101282.75;1745739;80;20868;-72
2021/07/26 10:55:02;;;;;;;6.12;3.87;;;;;;;39.25;19.05;101289.88;1737864;80;21990;-71
2021/07/26 10:57:50;;;;;;;4.60;3.20;;;;;;;39.23;20.11;101295.36;1750013;80;21019;-72
2021/07/26 11:00:25;;;;;;;5.37;3.10;;;;;;;39.18;19.93;101293.41;1750242;80;21354;-72
2021/07/26 11:02:53;;;;;;;4.92;3.70;;;;;;;39.07;18.82;101286.23;1741404;80;21406;-75
2021/07/26 11:05:31;;;;;;;6.90;3.00;;;;;;;38.87;20.37;101289.11;1773674;80;21466;-71
2021/07/26 11:08:25;;;;;;;9.63;3.70;;;;;;;38.79;19.28;101291.52;1766391;80;20936;-73
2021/07/26 11:10:58;;;;;;;6.10;3.98;;;;;;;38.70;19.69;101290.64;1769504;80;21332;-72
2021/07/26 11:13:50;;;;;;;5.10;4.22;;;;;;;38.69;19.42;101282.70;1772248;80;20901;-72
2021/07/26 11:16:56;;;;;;;4.90;3.25;;;;;;;38.70;19.93;101286.53;1763601;80;20995;-72
2021/07/26 11:19:55;;;;;;;6.17;3.22;;;;;;;38.71;20.42;101281.34;1759666;80;21334;-71
2021/07/26 11:22:26;;;;;;;5.78;4.40;;;;;;;38.73;19.76;101276.94;1747900;80;21619;-77
2021/07/26 11:24:57;;;;;;;3.83;3.42;;;;;;;38.68;20.63;101285.96;1771545;81;20975;-71
2021/07/26 11:27:39;;;;;;;7.30;3.45;;;;;;;38.58;19.67;101283.17;1754598;80;20955;-72
2021/07/26 11:30:11;;;;;;;8.28;4.60;;;;;;;38.42;19.29;101286.32;1751431;80;21497;-71